sensor_id;sensor_type;location;lat;lon;timestamp;P1;durP1;ratioP1;P2;durP2;ratioP2
23588;SDS011;11972;48.078;11.876;2023-02-22T00:02:58;12.10;;;7.22;;
23588;SDS011;11972;48.078;11.876;2023-02-22T00:06:58;11.30;;;7.00;;
23588;SDS011;11972;48.078;11.876;2023-02-22T00:11:01;10.48;;;7.20;;
23588;SDS011;11972;48.078;11.876;2023-02-22T00:15:08;14.98;;;7.40;;
23588;SDS011;11972;48.078;11.876;2023-02-22T00:19:09;8.77;;;6.30;;
23588;SDS011;11972;48.078;11.876;2023-02-22T00:23:16;8.77;;;5.60;;
23588;SDS011;11972;48.078;11.876;2023-02-22T00:27:18;10.60;;;5.90;;
23588;SDS011;11972;48.078;11.876;2023-02-22T00:31:20;5.88;;;4.68;;
23588;SDS011;11972;48.078;11.876;2023-02-22T00:35:22;13.88;;;7.78;;
23588;SDS011;11972;48.078;11.876;2023-02-22T00:39:23;6.95;;;3.95;;
23588;SDS011;11972;48.078;11.876;2023-02-22T00:43:24;10.35;;;6.75;;
23588;SDS011;11972;48.078;11.876;2023-02-22T00:47:25;15.13;;;5.80;;
23588;SDS011;11972;48.078;11.876;2023-02-22T00:51:26;4.90;;;4.13;;
23588;SDS011;11972;48.078;11.876;2023-02-22T00:55:32;5.93;;;4.00;;
23588;SDS011;11972;48.078;11.876;2023-02-22T00:59:34;5.60;;;3.70;;
23588;SDS011;11972;48.078;11.876;2023-02-22T01:03:34;5.45;;;3.63;;
23588;SDS011;11972;48.078;11.876;2023-02-22T01:07:34;5.93;;;3.40;;
23588;SDS011;11972;48.078;11.876;2023-02-22T01:11:35;4.38;;;3.42;;
23588;SDS011;11972;48.078;11.876;2023-02-22T01:15:36;7.60;;;5.28;;
23588;SDS011;11972;48.078;11.876;2023-02-22T01:19:38;5.82;;;4.43;;
23588;SDS011;11972;48.078;11.876;2023-02-22T01:23:43;6.63;;;3.30;;
23588;SDS011;11972;48.078;11.876;2023-02-22T01:27:44;6.05;;;3.78;;
23588;SDS011;11972;48.078;11.876;2023-02-22T01:31:49;5.80;;;3.58;;
23588;SDS011;11972;48.078;11.876;2023-02-22T01:35:53;5.05;;;3.60;;
23588;SDS011;11972;48.078;11.876;2023-02-22T01:39:53;6.57;;;3.55;;
23588;SDS011;11972;48.078;11.876;2023-02-22T01:43:54;4.75;;;3.42;;
23588;SDS011;11972;48.078;11.876;2023-02-22T01:52:08;4.07;;;3.17;;
23588;SDS011;11972;48.078;11.876;2023-02-22T01:56:13;5.55;;;3.60;;
23588;SDS011;11972;48.078;11.876;2023-02-22T02:00:16;5.72;;;3.40;;
23588;SDS011;11972;48.078;11.876;2023-02-22T02:04:20;3.85;;;2.65;;
23588;SDS011;11972;48.078;11.876;2023-02-22T02:08:30;4.47;;;2.95;;
23588;SDS011;11972;48.078;11.876;2023-02-22T02:12:35;4.15;;;2.78;;
23588;SDS011;11972;48.078;11.876;2023-02-22T02:16:43;3.65;;;2.97;;
23588;SDS011;11972;48.078;11.876;2023-02-22T02:30:26;3.72;;;2.70;;
23588;SDS011;11972;48.078;11.876;2023-02-22T02:38:29;4.18;;;2.90;;
23588;SDS011;11972;48.078;11.876;2023-02-22T02:42:42;5.72;;;3.30;;
23588;SDS011;11972;48.078;11.876;2023-02-22T02:46:58;4.60;;;2.95;;
23588;SDS011;11972;48.078;11.876;2023-02-22T02:51:01;3.78;;;2.80;;
23588;SDS011;11972;48.078;11.876;2023-02-22T02:55:05;3.10;;;2.50;;
23588;SDS011;11972;48.078;11.876;2023-02-22T02:59:27;4.85;;;2.63;;
23588;SDS011;11972;48.078;11.876;2023-02-22T03:16:54;4.32;;;2.90;;
23588;SDS011;11972;48.078;11.876;2023-02-22T03:25:24;4.30;;;2.90;;
23588;SDS011;11972;48.078;11.876;2023-02-22T03:29:40;3.95;;;2.53;;
23588;SDS011;11972;48.078;11.876;2023-02-22T03:33:49;2.85;;;2.60;;
23588;SDS011;11972;48.078;11.876;2023-02-22T03:37:54;3.33;;;2.58;;
23588;SDS011;11972;48.078;11.876;2023-02-22T03:42:02;4.20;;;2.78;;
23588;SDS011;11972;48.078;11.876;2023-02-22T03:46:05;4.60;;;2.78;;
23588;SDS011;11972;48.078;11.876;2023-02-22T03:50:13;5.80;;;2.88;;
23588;SDS011;11972;48.078;11.876;2023-02-22T03:58:17;3.83;;;2.93;;
23588;SDS011;11972;48.078;11.876;2023-02-22T04:02:21;5.68;;;3.22;;
23588;SDS011;11972;48.078;11.876;2023-02-22T04:06:22;4.70;;;2.97;;
23588;SDS011;11972;48.078;11.876;2023-02-22T04:10:23;3.92;;;3.13;;
23588;SDS011;11972;48.078;11.876;2023-02-22T04:14:24;5.32;;;4.22;;
23588;SDS011;11972;48.078;11.876;2023-02-22T04:18:24;7.93;;;4.63;;
23588;SDS011;11972;48.078;11.876;2023-02-22T04:22:25;4.40;;;3.58;;
23588;SDS011;11972;48.078;11.876;2023-02-22T04:26:25;4.05;;;3.60;;
23588;SDS011;11972;48.078;11.876;2023-02-22T04:30:25;5.03;;;3.83;;
23588;SDS011;11972;48.078;11.876;2023-02-22T04:34:27;3.55;;;3.25;;
23588;SDS011;11972;48.078;11.876;2023-02-22T04:38:27;4.60;;;3.47;;
23588;SDS011;11972;48.078;11.876;2023-02-22T04:42:27;4.22;;;3.67;;
23588;SDS011;11972;48.078;11.876;2023-02-22T04:46:28;6.10;;;4.53;;
23588;SDS011;11972;48.078;11.876;2023-02-22T04:50:28;5.70;;;4.53;;
23588;SDS011;11972;48.078;11.876;2023-02-22T04:54:28;5.93;;;4.60;;
23588;SDS011;11972;48.078;11.876;2023-02-22T04:58:29;5.10;;;4.60;;
23588;SDS011;11972;48.078;11.876;2023-02-22T05:02:30;5.88;;;4.32;;
23588;SDS011;11972;48.078;11.876;2023-02-22T05:06:31;6.35;;;4.30;;
23588;SDS011;11972;48.078;11.876;2023-02-22T05:10:31;5.00;;;3.78;;
23588;SDS011;11972;48.078;11.876;2023-02-22T05:14:32;4.82;;;4.18;;
23588;SDS011;11972;48.078;11.876;2023-02-22T05:18:33;5.97;;;4.15;;
23588;SDS011;11972;48.078;11.876;2023-02-22T05:22:33;5.80;;;4.22;;
23588;SDS011;11972;48.078;11.876;2023-02-22T05:26:35;4.72;;;3.90;;
23588;SDS011;11972;48.078;11.876;2023-02-22T05:30:36;5.35;;;4.22;;
23588;SDS011;11972;48.078;11.876;2023-02-22T05:34:38;5.13;;;4.10;;
23588;SDS011;11972;48.078;11.876;2023-02-22T05:38:39;6.30;;;3.85;;
23588;SDS011;11972;48.078;11.876;2023-02-22T05:42:43;5.25;;;4.18;;
23588;SDS011;11972;48.078;11.876;2023-02-22T05:46:44;8.63;;;4.22;;
23588;SDS011;11972;48.078;11.876;2023-02-22T05:50:44;4.68;;;4.10;;
23588;SDS011;11972;48.078;11.876;2023-02-22T05:54:44;4.72;;;3.90;;
23588;SDS011;11972;48.078;11.876;2023-02-22T05:58:45;5.15;;;4.30;;
23588;SDS011;11972;48.078;11.876;2023-02-22T06:02:45;4.85;;;3.95;;
23588;SDS011;11972;48.078;11.876;2023-02-22T06:06:45;5.00;;;4.18;;
23588;SDS011;11972;48.078;11.876;2023-02-22T06:10:46;9.48;;;6.30;;
23588;SDS011;11972;48.078;11.876;2023-02-22T06:14:46;4.97;;;4.40;;
23588;SDS011;11972;48.078;11.876;2023-02-22T06:18:47;4.00;;;3.60;;
23588;SDS011;11972;48.078;11.876;2023-02-22T06:22:51;6.72;;;3.58;;
23588;SDS011;11972;48.078;11.876;2023-02-22T06:26:56;3.90;;;3.50;;
23588;SDS011;11972;48.078;11.876;2023-02-22T06:30:57;6.07;;;3.55;;
23588;SDS011;11972;48.078;11.876;2023-02-22T06:34:58;6.72;;;4.20;;
23588;SDS011;11972;48.078;11.876;2023-02-22T06:38:58;7.00;;;4.57;;
23588;SDS011;11972;48.078;11.876;2023-02-22T06:42:58;7.65;;;6.05;;
23588;SDS011;11972;48.078;11.876;2023-02-22T06:46:59;7.20;;;4.93;;
23588;SDS011;11972;48.078;11.876;2023-02-22T06:50:59;7.10;;;4.63;;
23588;SDS011;11972;48.078;11.876;2023-02-22T06:54:59;6.53;;;4.40;;
23588;SDS011;11972;48.078;11.876;2023-02-22T06:59:00;7.85;;;4.50;;
23588;SDS011;11972;48.078;11.876;2023-02-22T07:03:03;5.90;;;4.40;;
23588;SDS011;11972;48.078;11.876;2023-02-22T07:07:04;5.65;;;3.78;;
23588;SDS011;11972;48.078;11.876;2023-02-22T07:11:04;8.10;;;4.93;;
23588;SDS011;11972;48.078;11.876;2023-02-22T07:15:04;6.25;;;4.57;;
23588;SDS011;11972;48.078;11.876;2023-02-22T07:19:05;7.50;;;4.18;;
23588;SDS011;11972;48.078;11.876;2023-02-22T07:23:06;7.72;;;4.30;;
23588;SDS011;11972;48.078;11.876;2023-02-22T07:27:06;4.15;;;3.15;;
23588;SDS011;11972;48.078;11.876;2023-02-22T07:31:06;4.78;;;3.05;;
23588;SDS011;11972;48.078;11.876;2023-02-22T07:35:12;6.00;;;3.50;;
23588;SDS011;11972;48.078;11.876;2023-02-22T07:39:13;5.05;;;2.50;;
23588;SDS011;11972;48.078;11.876;2023-02-22T07:43:18;3.08;;;2.15;;
23588;SDS011;11972;48.078;11.876;2023-02-22T07:47:22;3.40;;;2.10;;
23588;SDS011;11972;48.078;11.876;2023-02-22T07:51:22;5.85;;;1.77;;
23588;SDS011;11972;48.078;11.876;2023-02-22T07:55:24;2.33;;;1.88;;
23588;SDS011;11972;48.078;11.876;2023-02-22T07:59:26;5.95;;;1.67;;
23588;SDS011;11972;48.078;11.876;2023-02-22T08:03:26;3.85;;;1.80;;
23588;SDS011;11972;48.078;11.876;2023-02-22T08:07:29;3.60;;;1.95;;
23588;SDS011;11972;48.078;11.876;2023-02-22T08:11:30;2.38;;;1.75;;
23588;SDS011;11972;48.078;11.876;2023-02-22T08:15:34;3.15;;;1.58;;
23588;SDS011;11972;48.078;11.876;2023-02-22T08:19:36;3.78;;;1.80;;
23588;SDS011;11972;48.078;11.876;2023-02-22T08:23:38;5.07;;;1.80;;
23588;SDS011;11972;48.078;11.876;2023-02-22T08:27:38;1.98;;;1.65;;
23588;SDS011;11972;48.078;11.876;2023-02-22T08:31:39;3.50;;;1.85;;
23588;SDS011;11972;48.078;11.876;2023-02-22T08:35:40;3.25;;;1.92;;
23588;SDS011;11972;48.078;11.876;2023-02-22T08:39:41;3.55;;;1.63;;
23588;SDS011;11972;48.078;11.876;2023-02-22T08:43:41;3.17;;;1.60;;
23588;SDS011;11972;48.078;11.876;2023-02-22T08:47:41;4.18;;;1.77;;
23588;SDS011;11972;48.078;11.876;2023-02-22T08:51:42;3.33;;;1.90;;
23588;SDS011;11972;48.078;11.876;2023-02-22T08:55:42;2.45;;;1.60;;
23588;SDS011;11972;48.078;11.876;2023-02-22T08:59:43;1.58;;;1.48;;
23588;SDS011;11972;48.078;11.876;2023-02-22T09:03:47;2.80;;;1.50;;
23588;SDS011;11972;48.078;11.876;2023-02-22T09:07:47;3.45;;;1.73;;
23588;SDS011;11972;48.078;11.876;2023-02-22T09:11:48;2.17;;;1.55;;
23588;SDS011;11972;48.078;11.876;2023-02-22T09:15:48;2.15;;;1.38;;
23588;SDS011;11972;48.078;11.876;2023-02-22T09:19:48;2.33;;;1.30;;
23588;SDS011;11972;48.078;11.876;2023-02-22T09:23:49;3.45;;;1.55;;
23588;SDS011;11972;48.078;11.876;2023-02-22T09:27:50;4.00;;;1.85;;
23588;SDS011;11972;48.078;11.876;2023-02-22T09:31:52;2.00;;;1.58;;
23588;SDS011;11972;48.078;11.876;2023-02-22T09:35:53;2.97;;;1.45;;
23588;SDS011;11972;48.078;11.876;2023-02-22T09:39:54;3.45;;;1.40;;
23588;SDS011;11972;48.078;11.876;2023-02-22T09:44:07;2.03;;;1.80;;
23588;SDS011;11972;48.078;11.876;2023-02-22T09:48:16;2.35;;;1.35;;
23588;SDS011;11972;48.078;11.876;2023-02-22T09:52:29;2.65;;;1.60;;
23588;SDS011;11972;48.078;11.876;2023-02-22T09:56:35;2.72;;;1.50;;
23588;SDS011;11972;48.078;11.876;2023-02-22T10:00:36;2.75;;;1.50;;
23588;SDS011;11972;48.078;11.876;2023-02-22T10:04:44;2.28;;;1.70;;
23588;SDS011;11972;48.078;11.876;2023-02-22T10:08:52;1.90;;;1.50;;
23588;SDS011;11972;48.078;11.876;2023-02-22T10:17:09;2.65;;;1.38;;
23588;SDS011;11972;48.078;11.876;2023-02-22T10:21:34;3.03;;;1.77;;
23588;SDS011;11972;48.078;11.876;2023-02-22T10:25:38;2.33;;;1.65;;
23588;SDS011;11972;48.078;11.876;2023-02-22T10:29:45;3.45;;;1.80;;
23588;SDS011;11972;48.078;11.876;2023-02-22T10:33:54;1.88;;;1.70;;
23588;SDS011;11972;48.078;11.876;2023-02-22T10:37:59;2.17;;;1.30;;
23588;SDS011;11972;48.078;11.876;2023-02-22T10:42:11;2.35;;;1.33;;
23588;SDS011;11972;48.078;11.876;2023-02-22T10:46:13;2.63;;;1.70;;
23588;SDS011;11972;48.078;11.876;2023-02-22T10:50:17;2.97;;;1.40;;
23588;SDS011;11972;48.078;11.876;2023-02-22T10:54:24;3.10;;;1.40;;
23588;SDS011;11972;48.078;11.876;2023-02-22T10:58:29;2.17;;;1.40;;
23588;SDS011;11972;48.078;11.876;2023-02-22T11:02:40;1.48;;;1.38;;
23588;SDS011;11972;48.078;11.876;2023-02-22T11:11:01;2.30;;;1.50;;
23588;SDS011;11972;48.078;11.876;2023-02-22T11:19:19;2.13;;;1.70;;
23588;SDS011;11972;48.078;11.876;2023-02-22T11:23:23;3.25;;;1.45;;
23588;SDS011;11972;48.078;11.876;2023-02-22T11:31:41;1.90;;;1.60;;
23588;SDS011;11972;48.078;11.876;2023-02-22T11:35:56;4.00;;;1.45;;
23588;SDS011;11972;48.078;11.876;2023-02-22T11:40:06;3.55;;;2.83;;
23588;SDS011;11972;48.078;11.876;2023-02-22T11:44:23;2.22;;;1.30;;
23588;SDS011;11972;48.078;11.876;2023-02-22T11:48:25;4.38;;;3.53;;
23588;SDS011;11972;48.078;11.876;2023-02-22T11:52:32;2.60;;;1.27;;
23588;SDS011;11972;48.078;11.876;2023-02-22T11:56:41;0.80;;;0.80;;
23588;SDS011;11972;48.078;11.876;2023-02-22T12:14:05;0.80;;;0.77;;
23588;SDS011;11972;48.078;11.876;2023-02-22T12:22:34;1.45;;;0.80;;
23588;SDS011;11972;48.078;11.876;2023-02-22T12:26:38;1.45;;;0.88;;
23588;SDS011;11972;48.078;11.876;2023-02-22T12:30:41;2.42;;;0.73;;
23588;SDS011;11972;48.078;11.876;2023-02-22T12:38:49;1.42;;;1.05;;
23588;SDS011;11972;48.078;11.876;2023-02-22T12:42:58;1.90;;;1.52;;
23588;SDS011;11972;48.078;11.876;2023-02-22T12:46:59;2.10;;;0.95;;
23588;SDS011;11972;48.078;11.876;2023-02-22T12:55:30;1.50;;;0.90;;
23588;SDS011;11972;48.078;11.876;2023-02-22T12:59:48;1.10;;;0.88;;
23588;SDS011;11972;48.078;11.876;2023-02-22T13:03:51;1.42;;;0.75;;
23588;SDS011;11972;48.078;11.876;2023-02-22T13:08:01;1.48;;;0.88;;
23588;SDS011;11972;48.078;11.876;2023-02-22T13:20:52;1.60;;;0.68;;
23588;SDS011;11972;48.078;11.876;2023-02-22T13:25:01;2.42;;;1.30;;
23588;SDS011;11972;48.078;11.876;2023-02-22T13:29:17;3.00;;;1.75;;
23588;SDS011;11972;48.078;11.876;2023-02-22T13:33:36;1.35;;;0.85;;
23588;SDS011;11972;48.078;11.876;2023-02-22T13:38:18;0.98;;;0.88;;
23588;SDS011;11972;48.078;11.876;2023-02-22T13:55:46;1.95;;;0.60;;
23588;SDS011;11972;48.078;11.876;2023-02-22T14:16:36;1.05;;;0.70;;
23588;SDS011;11972;48.078;11.876;2023-02-22T14:20:36;9.30;;;4.65;;
23588;SDS011;11972;48.078;11.876;2023-02-22T14:24:42;2.22;;;0.80;;
23588;SDS011;11972;48.078;11.876;2023-02-22T14:32:49;3.03;;;1.10;;
23588;SDS011;11972;48.078;11.876;2023-02-22T14:36:57;7.78;;;5.00;;
23588;SDS011;11972;48.078;11.876;2023-02-22T14:41:03;2.17;;;1.40;;
23588;SDS011;11972;48.078;11.876;2023-02-22T14:49:16;3.88;;;2.65;;
23588;SDS011;11972;48.078;11.876;2023-02-22T14:57:34;1.67;;;1.58;;
23588;SDS011;11972;48.078;11.876;2023-02-22T15:01:41;2.15;;;1.70;;
23588;SDS011;11972;48.078;11.876;2023-02-22T15:05:45;2.25;;;1.30;;
23588;SDS011;11972;48.078;11.876;2023-02-22T15:09:46;2.22;;;1.00;;
23588;SDS011;11972;48.078;11.876;2023-02-22T15:13:51;3.78;;;1.30;;
23588;SDS011;11972;48.078;11.876;2023-02-22T15:17:54;1.45;;;1.00;;
23588;SDS011;11972;48.078;11.876;2023-02-22T15:21:56;1.92;;;0.90;;
23588;SDS011;11972;48.078;11.876;2023-02-22T15:25:58;2.30;;;1.20;;
23588;SDS011;11972;48.078;11.876;2023-02-22T15:30:00;6.28;;;3.30;;
23588;SDS011;11972;48.078;11.876;2023-02-22T15:34:24;1.90;;;1.70;;
23588;SDS011;11972;48.078;11.876;2023-02-22T15:38:28;1.02;;;0.93;;
23588;SDS011;11972;48.078;11.876;2023-02-22T15:42:29;2.20;;;1.30;;
23588;SDS011;11972;48.078;11.876;2023-02-22T15:46:29;1.55;;;1.30;;
23588;SDS011;11972;48.078;11.876;2023-02-22T15:50:31;3.38;;;2.28;;
23588;SDS011;11972;48.078;11.876;2023-02-22T15:54:37;4.47;;;2.72;;
23588;SDS011;11972;48.078;11.876;2023-02-22T15:58:40;2.92;;;1.75;;
23588;SDS011;11972;48.078;11.876;2023-02-22T16:02:43;2.78;;;2.10;;
23588;SDS011;11972;48.078;11.876;2023-02-22T16:06:43;2.85;;;1.98;;
23588;SDS011;11972;48.078;11.876;2023-02-22T16:15:01;1.75;;;1.08;;
23588;SDS011;11972;48.078;11.876;2023-02-22T16:19:18;2.22;;;1.38;;
23588;SDS011;11972;48.078;11.876;2023-02-22T16:23:26;2.65;;;1.27;;
23588;SDS011;11972;48.078;11.876;2023-02-22T16:27:27;2.55;;;1.10;;
23588;SDS011;11972;48.078;11.876;2023-02-22T16:31:29;2.30;;;0.95;;
23588;SDS011;11972;48.078;11.876;2023-02-22T16:35:34;1.33;;;0.90;;
23588;SDS011;11972;48.078;11.876;2023-02-22T16:39:35;0.95;;;0.80;;
23588;SDS011;11972;48.078;11.876;2023-02-22T16:43:36;1.10;;;0.95;;
23588;SDS011;11972;48.078;11.876;2023-02-22T16:47:36;1.02;;;0.80;;
23588;SDS011;11972;48.078;11.876;2023-02-22T16:51:44;3.70;;;1.42;;
23588;SDS011;11972;48.078;11.876;2023-02-22T16:55:48;1.98;;;1.33;;
23588;SDS011;11972;48.078;11.876;2023-02-22T16:59:49;1.90;;;1.00;;
23588;SDS011;11972;48.078;11.876;2023-02-22T17:03:51;2.40;;;1.27;;
23588;SDS011;11972;48.078;11.876;2023-02-22T17:07:52;2.38;;;1.30;;
23588;SDS011;11972;48.078;11.876;2023-02-22T17:11:53;2.67;;;1.27;;
23588;SDS011;11972;48.078;11.876;2023-02-22T17:15:54;2.40;;;0.90;;
23588;SDS011;11972;48.078;11.876;2023-02-22T17:19:55;3.47;;;1.38;;
23588;SDS011;11972;48.078;11.876;2023-02-22T17:23:56;2.78;;;1.02;;
23588;SDS011;11972;48.078;11.876;2023-02-22T17:27:56;2.08;;;1.10;;
23588;SDS011;11972;48.078;11.876;2023-02-22T17:31:56;2.28;;;0.75;;
23588;SDS011;11972;48.078;11.876;2023-02-22T17:35:57;2.03;;;0.82;;
23588;SDS011;11972;48.078;11.876;2023-02-22T17:40:00;2.85;;;0.75;;
23588;SDS011;11972;48.078;11.876;2023-02-22T17:44:01;2.97;;;2.10;;
23588;SDS011;11972;48.078;11.876;2023-02-22T17:48:01;2.88;;;2.50;;
23588;SDS011;11972;48.078;11.876;2023-02-22T17:52:02;1.75;;;1.20;;
23588;SDS011;11972;48.078;11.876;2023-02-22T17:56:09;3.35;;;1.70;;
23588;SDS011;11972;48.078;11.876;2023-02-22T18:00:13;1.98;;;1.27;;
23588;SDS011;11972;48.078;11.876;2023-02-22T18:04:22;4.15;;;1.90;;
23588;SDS011;11972;48.078;11.876;2023-02-22T18:08:23;6.28;;;2.13;;
23588;SDS011;11972;48.078;11.876;2023-02-22T18:12:24;4.53;;;2.53;;
23588;SDS011;11972;48.078;11.876;2023-02-22T18:16:24;4.93;;;1.95;;
23588;SDS011;11972;48.078;11.876;2023-02-22T18:20:25;3.65;;;1.85;;
23588;SDS011;11972;48.078;11.876;2023-02-22T18:24:37;2.15;;;1.85;;
23588;SDS011;11972;48.078;11.876;2023-02-22T18:28:37;2.70;;;1.70;;
23588;SDS011;11972;48.078;11.876;2023-02-22T18:32:38;2.38;;;1.80;;
23588;SDS011;11972;48.078;11.876;2023-02-22T18:36:39;2.72;;;1.92;;
23588;SDS011;11972;48.078;11.876;2023-02-22T18:40:40;5.60;;;2.50;;
23588;SDS011;11972;48.078;11.876;2023-02-22T18:44:43;4.93;;;3.30;;
23588;SDS011;11972;48.078;11.876;2023-02-22T18:48:46;4.78;;;3.15;;
23588;SDS011;11972;48.078;11.876;2023-02-22T18:52:47;9.73;;;6.00;;
23588;SDS011;11972;48.078;11.876;2023-02-22T18:56:48;5.68;;;4.50;;
23588;SDS011;11972;48.078;11.876;2023-02-22T19:00:48;7.18;;;4.25;;
23588;SDS011;11972;48.078;11.876;2023-02-22T19:04:52;6.43;;;5.78;;
23588;SDS011;11972;48.078;11.876;2023-02-22T19:08:56;6.45;;;5.63;;
23588;SDS011;11972;48.078;11.876;2023-02-22T19:13:00;7.78;;;6.80;;
23588;SDS011;11972;48.078;11.876;2023-02-22T19:17:04;11.95;;;8.20;;
23588;SDS011;11972;48.078;11.876;2023-02-22T19:21:06;10.98;;;7.82;;
23588;SDS011;11972;48.078;11.876;2023-02-22T19:25:09;12.32;;;9.70;;
23588;SDS011;11972;48.078;11.876;2023-02-22T19:29:10;11.55;;;8.68;;
23588;SDS011;11972;48.078;11.876;2023-02-22T19:33:11;10.55;;;9.07;;
23588;SDS011;11972;48.078;11.876;2023-02-22T19:37:28;16.13;;;10.20;;
23588;SDS011;11972;48.078;11.876;2023-02-22T19:41:40;12.95;;;9.50;;
23588;SDS011;11972;48.078;11.876;2023-02-22T19:45:45;7.65;;;5.53;;
23588;SDS011;11972;48.078;11.876;2023-02-22T19:49:48;7.82;;;5.63;;
23588;SDS011;11972;48.078;11.876;2023-02-22T19:53:49;11.35;;;6.28;;
23588;SDS011;11972;48.078;11.876;2023-02-22T19:57:49;6.47;;;4.78;;
23588;SDS011;11972;48.078;11.876;2023-02-22T20:01:53;5.85;;;3.58;;
23588;SDS011;11972;48.078;11.876;2023-02-22T20:05:56;3.78;;;2.80;;
23588;SDS011;11972;48.078;11.876;2023-02-22T20:09:57;3.83;;;3.42;;
23588;SDS011;11972;48.078;11.876;2023-02-22T20:13:57;10.63;;;8.88;;
23588;SDS011;11972;48.078;11.876;2023-02-22T20:18:00;17.25;;;10.32;;
23588;SDS011;11972;48.078;11.876;2023-02-22T20:22:04;55.58;;;32.47;;
23588;SDS011;11972;48.078;11.876;2023-02-22T20:26:05;23.15;;;16.17;;
23588;SDS011;11972;48.078;11.876;2023-02-22T20:30:14;16.17;;;11.82;;
23588;SDS011;11972;48.078;11.876;2023-02-22T20:34:17;12.93;;;8.98;;
23588;SDS011;11972;48.078;11.876;2023-02-22T20:38:17;9.63;;;6.68;;
23588;SDS011;11972;48.078;11.876;2023-02-22T20:42:18;8.50;;;6.13;;
23588;SDS011;11972;48.078;11.876;2023-02-22T20:46:18;20.58;;;14.13;;
23588;SDS011;11972;48.078;11.876;2023-02-22T20:50:19;19.88;;;12.75;;
23588;SDS011;11972;48.078;11.876;2023-02-22T20:54:19;89.57;;;48.88;;
23588;SDS011;11972;48.078;11.876;2023-02-22T20:58:19;64.25;;;37.25;;
23588;SDS011;11972;48.078;11.876;2023-02-22T21:02:20;16.02;;;9.23;;
23588;SDS011;11972;48.078;11.876;2023-02-22T21:06:20;12.60;;;8.82;;
23588;SDS011;11972;48.078;11.876;2023-02-22T21:10:21;10.02;;;8.13;;
23588;SDS011;11972;48.078;11.876;2023-02-22T21:14:34;12.57;;;7.78;;
23588;SDS011;11972;48.078;11.876;2023-02-22T21:18:36;10.48;;;7.82;;
23588;SDS011;11972;48.078;11.876;2023-02-22T21:22:40;23.90;;;16.33;;
23588;SDS011;11972;48.078;11.876;2023-02-22T21:26:41;13.02;;;9.27;;
23588;SDS011;11972;48.078;11.876;2023-02-22T21:30:41;12.23;;;8.60;;
23588;SDS011;11972;48.078;11.876;2023-02-22T21:34:45;12.15;;;7.45;;
23588;SDS011;11972;48.078;11.876;2023-02-22T21:38:46;8.80;;;7.60;;
23588;SDS011;11972;48.078;11.876;2023-02-22T21:42:55;10.97;;;7.57;;
23588;SDS011;11972;48.078;11.876;2023-02-22T21:46:56;13.38;;;7.65;;
23588;SDS011;11972;48.078;11.876;2023-02-22T21:51:05;9.88;;;8.00;;
23588;SDS011;11972;48.078;11.876;2023-02-22T21:55:10;9.18;;;6.97;;
23588;SDS011;11972;48.078;11.876;2023-02-22T21:59:15;9.77;;;7.00;;
23588;SDS011;11972;48.078;11.876;2023-02-22T22:03:19;10.40;;;6.97;;
23588;SDS011;11972;48.078;11.876;2023-02-22T22:07:22;10.93;;;6.95;;
23588;SDS011;11972;48.078;11.876;2023-02-22T22:11:29;11.77;;;7.93;;
23588;SDS011;11972;48.078;11.876;2023-02-22T22:15:35;13.18;;;8.48;;
23588;SDS011;11972;48.078;11.876;2023-02-22T22:19:41;10.23;;;7.70;;
23588;SDS011;11972;48.078;11.876;2023-02-22T22:23:44;10.07;;;8.55;;
23588;SDS011;11972;48.078;11.876;2023-02-22T22:27:46;10.60;;;8.45;;
23588;SDS011;11972;48.078;11.876;2023-02-22T22:31:46;9.73;;;7.90;;
23588;SDS011;11972;48.078;11.876;2023-02-22T22:35:46;10.18;;;8.05;;
23588;SDS011;11972;48.078;11.876;2023-02-22T22:39:47;11.43;;;8.15;;
23588;SDS011;11972;48.078;11.876;2023-02-22T22:43:47;9.70;;;7.82;;
23588;SDS011;11972;48.078;11.876;2023-02-22T22:47:47;9.23;;;7.97;;
23588;SDS011;11972;48.078;11.876;2023-02-22T22:51:48;12.63;;;8.10;;
23588;SDS011;11972;48.078;11.876;2023-02-22T22:55:48;9.63;;;7.82;;
23588;SDS011;11972;48.078;11.876;2023-02-22T22:59:48;12.77;;;8.27;;
23588;SDS011;11972;48.078;11.876;2023-02-22T23:03:51;11.77;;;8.18;;
23588;SDS011;11972;48.078;11.876;2023-02-22T23:07:56;10.35;;;8.18;;
23588;SDS011;11972;48.078;11.876;2023-02-22T23:11:58;10.25;;;8.73;;
23588;SDS011;11972;48.078;11.876;2023-02-22T23:16:08;29.40;;;17.92;;
23588;SDS011;11972;48.078;11.876;2023-02-22T23:20:11;23.45;;;15.63;;
23588;SDS011;11972;48.078;11.876;2023-02-22T23:24:12;14.50;;;9.02;;
23588;SDS011;11972;48.078;11.876;2023-02-22T23:28:14;13.98;;;9.00;;
23588;SDS011;11972;48.078;11.876;2023-02-22T23:32:14;12.35;;;9.98;;
23588;SDS011;11972;48.078;11.876;2023-02-22T23:36:18;18.42;;;12.15;;
23588;SDS011;11972;48.078;11.876;2023-02-22T23:40:19;9.55;;;8.02;;
23588;SDS011;11972;48.078;11.876;2023-02-22T23:44:19;9.50;;;8.48;;
23588;SDS011;11972;48.078;11.876;2023-02-22T23:48:21;12.50;;;10.23;;
23588;SDS011;11972;48.078;11.876;2023-02-22T23:52:21;12.77;;;8.95;;
23588;SDS011;11972;48.078;11.876;2023-02-22T23:56:24;11.32;;;8.77;;
